UKLU/UDJ METAR and TAF weather

Enter ICAO airport designator
Station Type Date Time Source
UKLU METAR 2019/04/25 08:00 UTC NOAA

UKLU 250800Z 13004MPS 070V200 9999 NSC 19/06 Q1020 R10/090070 NOSIG


Station Type Date Time Source
UKLU Decoded METAR 2019/04/25 08:00 UTC NOAA

Uzhhorod, Ukraine (UKLU) 48-38-05N 022-15-53E
Apr 25, 2019 - 04:00 AM EDT / 2019.04.25 0800 UTC
Wind: from the SE (130 degrees) at 9 MPH (8 KT) (direction variable):0
Visibility: greater than 7 mile(s):0
Temperature: 66 F (19 C)
Dew Point: 42 F (6 C)
Relative Humidity: 42%
Pressure (altimeter): 30.12 in. Hg (1020 hPa)
ob: UKLU 250800Z 13004MPS 070V200 9999 NSC 19/06 Q1020 R10/090070 NOSIG
cycle: 8

Station Type Date Time Source
UKLU TAF 2019/04/25 06:24 UTC NOAA

TAF TAF UKLU 250504Z 2506/2615 12005MPS 9999 NSC
TEMPO 2506/2512 15007G12MPS SCT040

Example: see airport list